createdAt,value
2022-12-06T00:01:37.188Z,5.13
2022-12-06T00:04:06.766Z,5.45
2022-12-06T00:06:37.912Z,5.13
2022-12-06T00:09:05.150Z,4.63
2022-12-06T00:11:34.560Z,4.68
2022-12-06T00:14:05.307Z,5.03
2022-12-06T00:16:33.957Z,5.00
2022-12-06T00:19:01.671Z,5.07
2022-12-06T00:21:37.002Z,4.78
2022-12-06T00:24:11.923Z,4.75
2022-12-06T00:26:41.588Z,5.28
2022-12-06T00:29:12.785Z,4.97
2022-12-06T00:31:39.998Z,4.28
2022-12-06T00:34:09.441Z,4.43
2022-12-06T00:36:38.913Z,5.15
2022-12-06T00:39:09.476Z,4.38
2022-12-06T00:41:42.270Z,4.25
2022-12-06T00:44:09.890Z,4.70
2022-12-06T00:46:39.995Z,4.88
2022-12-06T00:49:09.734Z,3.80
2022-12-06T00:51:39.741Z,4.28
2022-12-06T00:54:07.519Z,4.35
2022-12-06T00:56:36.199Z,4.60
2022-12-06T00:59:03.813Z,4.43
2022-12-06T01:01:36.390Z,4.70
2022-12-06T01:04:06.123Z,4.40
2022-12-06T01:06:35.281Z,3.80
2022-12-06T01:09:07.212Z,3.95
2022-12-06T01:11:34.846Z,4.60
2022-12-06T01:14:04.947Z,4.15
2022-12-06T01:16:32.909Z,4.32
2022-12-06T01:19:07.860Z,4.20
2022-12-06T01:21:37.034Z,4.43
2022-12-06T01:24:06.663Z,4.40
2022-12-06T01:26:37.193Z,4.47
2022-12-06T01:29:04.639Z,4.57
2022-12-06T01:31:38.973Z,4.07
2022-12-06T01:34:15.866Z,3.57
2022-12-06T01:36:45.668Z,4.05
2022-12-06T01:39:12.860Z,3.80
2022-12-06T01:41:40.427Z,4.10
2022-12-06T01:44:30.384Z,3.80
2022-12-06T01:46:57.487Z,4.60
2022-12-06T01:49:34.840Z,4.03
2022-12-06T01:52:10.041Z,4.28
2022-12-06T01:54:40.325Z,4.22
2022-12-06T01:57:11.231Z,3.85
2022-12-06T01:59:38.329Z,3.75
2022-12-06T02:02:07.976Z,3.78
2022-12-06T02:04:36.152Z,3.80
2022-12-06T02:07:06.010Z,3.97
2022-12-06T02:09:36.755Z,4.63
2022-12-06T02:12:11.552Z,4.03
2022-12-06T02:14:43.594Z,4.00
2022-12-06T02:17:32.007Z,3.20
2022-12-06T02:20:19.795Z,3.58
2022-12-06T02:23:18.153Z,3.53
2022-12-06T02:25:54.407Z,3.60
2022-12-06T02:28:40.083Z,4.07
2022-12-06T02:31:43.576Z,3.28
2022-12-06T02:34:25.114Z,3.70
2022-12-06T02:37:09.580Z,3.50
2022-12-06T02:40:00.011Z,3.85
2022-12-06T02:42:44.508Z,3.97
2022-12-06T02:45:21.045Z,3.35
2022-12-06T02:47:50.105Z,3.78
2022-12-06T02:50:28.261Z,3.72
2022-12-06T02:53:00.145Z,3.40
2022-12-06T02:55:32.003Z,3.58
2022-12-06T02:57:59.283Z,3.38
2022-12-06T03:00:36.931Z,3.50
2022-12-06T03:03:30.010Z,4.07
2022-12-06T03:06:02.950Z,3.55
2022-12-06T03:08:47.919Z,3.65
2022-12-06T03:11:18.596Z,3.38
2022-12-06T03:13:55.785Z,3.45
2022-12-06T03:16:26.619Z,3.80
2022-12-06T03:19:21.094Z,3.67
2022-12-06T03:22:39.633Z,3.45
2022-12-06T03:25:08.336Z,3.63
2022-12-06T03:27:36.424Z,3.38
2022-12-06T03:30:08.314Z,3.20
2022-12-06T03:32:39.040Z,3.63
2022-12-06T03:35:10.401Z,3.35
2022-12-06T03:37:49.253Z,3.35
2022-12-06T03:40:24.313Z,3.17
2022-12-06T03:42:52.034Z,3.67
2022-12-06T03:45:28.809Z,3.65
2022-12-06T03:48:04.170Z,3.40
2022-12-06T03:50:41.780Z,3.25
2022-12-06T03:53:09.023Z,3.55
2022-12-06T03:55:42.273Z,3.65
2022-12-06T03:58:11.609Z,4.15
2022-12-06T04:00:38.896Z,3.63
2022-12-06T04:03:06.061Z,3.70
2022-12-06T04:05:35.345Z,3.30
2022-12-06T04:08:04.824Z,3.55
2022-12-06T04:10:31.934Z,3.90
2022-12-06T04:13:05.887Z,4.18
2022-12-06T04:15:38.793Z,4.25
2022-12-06T04:18:13.429Z,4.57
2022-12-06T04:21:15.189Z,4.00
2022-12-06T04:23:45.289Z,4.47
2022-12-06T04:26:14.705Z,4.45
2022-12-06T04:29:02.427Z,4.88
2022-12-06T04:31:48.187Z,4.13
2022-12-06T04:34:35.010Z,3.58
2022-12-06T04:37:21.245Z,4.40
2022-12-06T04:39:50.842Z,3.78
2022-12-06T04:42:38.586Z,3.65
2022-12-06T04:45:08.456Z,3.80
2022-12-06T04:47:35.642Z,3.83
2022-12-06T04:50:03.536Z,3.67
2022-12-06T04:52:35.441Z,4.28
2022-12-06T04:55:08.347Z,3.47
2022-12-06T04:57:35.408Z,3.42
2022-12-06T05:00:02.900Z,3.33
2022-12-06T05:02:30.256Z,3.38
2022-12-06T05:04:57.416Z,3.70
2022-12-06T05:07:26.865Z,3.88
2022-12-06T05:09:53.963Z,3.65
2022-12-06T05:12:21.008Z,3.65
2022-12-06T05:14:48.050Z,3.08
2022-12-06T05:17:15.101Z,3.10
2022-12-06T05:19:44.513Z,3.45
2022-12-06T05:22:14.002Z,3.17
2022-12-06T05:24:43.136Z,3.95
2022-12-06T05:27:10.230Z,3.22
2022-12-06T05:29:37.402Z,3.35
2022-12-06T05:32:06.957Z,3.28
2022-12-06T05:34:38.487Z,3.30
2022-12-06T05:37:05.548Z,3.75
2022-12-06T05:39:32.673Z,3.10
2022-12-06T05:41:59.760Z,3.50
2022-12-06T05:44:29.067Z,4.05
2022-12-06T05:46:56.117Z,3.22
2022-12-06T05:49:26.182Z,2.97
2022-12-06T05:51:53.258Z,3.38
2022-12-06T05:54:20.542Z,3.42
2022-12-06T05:56:52.206Z,3.50
2022-12-06T05:59:21.533Z,2.97
2022-12-06T06:01:53.001Z,3.05
2022-12-06T06:04:22.362Z,3.60
2022-12-06T06:06:49.490Z,3.40
2022-12-06T06:09:18.882Z,3.38
2022-12-06T06:11:48.168Z,2.90
2022-12-06T06:14:17.637Z,3.05
2022-12-06T06:16:47.058Z,3.60
2022-12-06T06:19:14.391Z,4.07
2022-12-06T06:21:41.550Z,3.72
2022-12-06T06:24:09.092Z,4.22
2022-12-06T06:26:38.588Z,4.30
2022-12-06T06:29:05.625Z,3.85
2022-12-06T06:31:32.813Z,4.78
2022-12-06T06:34:00.040Z,4.47
2022-12-06T06:36:29.177Z,4.60
2022-12-06T06:38:56.359Z,5.32
2022-12-06T06:41:23.517Z,5.35
2022-12-06T06:43:53.004Z,4.18
2022-12-06T06:46:27.605Z,5.15
2022-12-06T06:48:59.554Z,4.75
2022-12-06T06:51:30.468Z,4.88
2022-12-06T06:53:57.987Z,4.60
2022-12-06T06:56:26.000Z,4.85
2022-12-06T06:58:53.205Z,5.20
2022-12-06T07:01:23.680Z,4.25
2022-12-06T07:03:54.187Z,4.50
2022-12-06T07:06:21.314Z,4.72
2022-12-06T07:08:48.545Z,4.35
2022-12-06T07:11:16.267Z,4.28
2022-12-06T07:13:51.263Z,4.18
2022-12-06T07:16:19.801Z,5.07
2022-12-06T07:18:49.101Z,4.43
2022-12-06T07:21:19.135Z,4.95
2022-12-06T07:23:46.581Z,4.30
2022-12-06T07:26:21.443Z,4.95
2022-12-06T07:28:51.693Z,6.38
2022-12-06T07:31:24.829Z,5.50
2022-12-06T07:36:26.072Z,6.05
2022-12-06T07:38:55.460Z,5.32
2022-12-06T07:41:44.961Z,5.30
2022-12-06T07:44:55.546Z,5.88
2022-12-06T07:47:31.900Z,5.95
2022-12-06T07:50:01.984Z,6.75
2022-12-06T07:52:34.428Z,6.32
2022-12-06T07:55:02.281Z,6.15
2022-12-06T07:57:29.359Z,5.75
2022-12-06T07:59:58.969Z,6.63
2022-12-06T08:02:30.132Z,9.45
2022-12-06T08:04:58.541Z,8.90
2022-12-06T08:07:26.412Z,8.10
2022-12-06T08:09:54.555Z,8.73
2022-12-06T08:12:22.080Z,7.88
2022-12-06T08:14:49.182Z,7.78
2022-12-06T08:17:18.767Z,7.68
2022-12-06T08:19:46.924Z,6.93
2022-12-06T08:22:18.689Z,6.95
2022-12-06T08:24:48.146Z,7.28
2022-12-06T08:27:20.150Z,6.88
2022-12-06T08:29:49.547Z,6.65
2022-12-06T08:32:19.169Z,7.60
2022-12-06T08:34:46.342Z,6.60
2022-12-06T08:37:13.448Z,8.00
2022-12-06T08:39:42.808Z,6.22
2022-12-06T08:42:14.440Z,7.93
2022-12-06T08:44:43.795Z,6.85
2022-12-06T08:47:11.121Z,7.70
2022-12-06T08:49:38.241Z,5.85
2022-12-06T08:52:05.344Z,5.57
2022-12-06T08:54:35.560Z,7.07
2022-12-06T08:57:05.099Z,6.35
2022-12-06T08:59:36.886Z,5.90
2022-12-06T09:02:04.094Z,6.45
2022-12-06T09:04:33.592Z,6.28
2022-12-06T09:07:07.426Z,6.05
2022-12-06T09:09:39.634Z,5.55
2022-12-06T09:12:11.289Z,5.00
2022-12-06T09:14:38.563Z,6.28
2022-12-06T09:17:06.237Z,5.05
2022-12-06T09:19:38.152Z,5.95
2022-12-06T09:22:05.319Z,5.90
2022-12-06T09:24:34.762Z,4.88
2022-12-06T09:27:04.140Z,6.55
2022-12-06T09:29:33.827Z,5.00
2022-12-06T09:34:33.711Z,5.55
2022-12-06T09:37:13.061Z,4.60
2022-12-06T09:39:46.105Z,5.10
2022-12-06T09:42:26.924Z,4.82
2022-12-06T09:45:12.529Z,4.80
2022-12-06T09:48:10.568Z,4.80
2022-12-06T09:50:49.476Z,5.03
2022-12-06T09:53:16.485Z,5.03
2022-12-06T09:56:20.705Z,5.38
2022-12-06T09:59:11.283Z,4.57
2022-12-06T10:01:52.033Z,5.50
2022-12-06T10:04:35.867Z,4.50
2022-12-06T10:07:05.875Z,5.15
2022-12-06T10:09:39.002Z,3.95
2022-12-06T10:12:21.392Z,4.40
2022-12-06T10:15:16.862Z,4.70
2022-12-06T10:18:17.034Z,5.03
2022-12-06T10:20:57.732Z,4.07
2022-12-06T10:23:46.113Z,4.43
2022-12-06T10:26:34.259Z,3.92
2022-12-06T10:29:11.833Z,4.50
2022-12-06T10:31:56.860Z,4.60
2022-12-06T10:34:55.315Z,4.28
2022-12-06T10:37:22.465Z,3.90
2022-12-06T10:40:02.833Z,4.15
2022-12-06T10:43:16.260Z,3.95
2022-12-06T10:46:09.325Z,4.10
2022-12-06T10:48:43.605Z,4.28
2022-12-06T10:51:30.004Z,3.92
2022-12-06T10:54:10.220Z,4.30
2022-12-06T10:56:41.723Z,3.90
2022-12-06T10:59:30.000Z,4.20
2022-12-06T11:02:01.702Z,3.65
2022-12-06T11:04:38.822Z,4.22
2022-12-06T11:07:18.163Z,4.10
2022-12-06T11:09:51.068Z,4.60
2022-12-06T11:12:31.921Z,4.13
2022-12-06T11:15:07.263Z,3.60
2022-12-06T11:17:45.076Z,3.92
2022-12-06T11:20:48.098Z,4.03
2022-12-06T11:23:33.630Z,3.97
2022-12-06T11:26:15.063Z,4.28
2022-12-06T11:28:49.200Z,3.70
2022-12-06T11:31:37.485Z,3.30
2022-12-06T11:34:13.394Z,3.45
2022-12-06T11:36:42.941Z,3.72
2022-12-06T11:39:13.609Z,3.78
2022-12-06T11:41:47.473Z,3.28
2022-12-06T11:44:25.390Z,3.03
2022-12-06T11:46:59.388Z,2.92
2022-12-06T11:49:40.613Z,3.58
2022-12-06T11:52:20.300Z,3.33
2022-12-06T11:54:55.983Z,3.25
2022-12-06T11:57:28.830Z,3.15
2022-12-06T12:00:16.788Z,3.30
2022-12-06T12:02:53.802Z,3.45
2022-12-06T12:05:30.515Z,2.95
2022-12-06T12:08:17.223Z,2.70
2022-12-06T12:11:00.329Z,2.88
2022-12-06T12:13:44.171Z,2.80
2022-12-06T12:16:24.617Z,2.85
2022-12-06T12:18:58.334Z,3.07
2022-12-06T12:21:37.921Z,2.88
2022-12-06T12:24:06.931Z,2.60
2022-12-06T12:26:37.054Z,3.35
2022-12-06T12:29:19.783Z,2.60
2022-12-06T12:31:53.315Z,3.00
2022-12-06T12:34:22.044Z,2.80
2022-12-06T12:36:56.114Z,2.83
2022-12-06T12:39:31.738Z,2.60
2022-12-06T12:42:02.299Z,2.80
2022-12-06T12:44:38.793Z,3.17
2022-12-06T12:47:19.754Z,2.78
2022-12-06T12:50:01.069Z,3.13
2022-12-06T12:52:42.147Z,2.45
2022-12-06T12:55:12.663Z,2.53
2022-12-06T12:57:48.210Z,2.72
2022-12-06T13:00:20.143Z,2.83
2022-12-06T13:03:14.128Z,2.40
2022-12-06T13:05:53.675Z,2.47
2022-12-06T13:08:31.882Z,2.58
2022-12-06T13:11:01.951Z,2.30
2022-12-06T13:13:37.636Z,2.30
2022-12-06T13:16:11.801Z,2.65
2022-12-06T13:18:43.509Z,2.60
2022-12-06T13:21:27.702Z,2.20
2022-12-06T13:24:26.273Z,2.50
2022-12-06T13:27:00.785Z,2.42
2022-12-06T13:29:46.445Z,2.38
2022-12-06T13:32:48.836Z,2.10
2022-12-06T13:35:37.107Z,2.22
2022-12-06T13:38:26.975Z,2.45
2022-12-06T13:41:01.252Z,2.22
2022-12-06T13:43:32.774Z,1.90
2022-12-06T13:46:06.748Z,1.98
2022-12-06T13:49:24.181Z,1.90
2022-12-06T13:51:53.587Z,1.70
2022-12-06T13:54:20.658Z,2.35
2022-12-06T13:56:47.776Z,2.17
2022-12-06T13:59:17.136Z,2.03
2022-12-06T14:01:48.753Z,1.92
2022-12-06T14:07:04.334Z,1.98
2022-12-06T14:09:47.923Z,2.05
2022-12-06T14:12:19.946Z,2.10
2022-12-06T14:15:04.265Z,2.20
2022-12-06T14:20:33.453Z,2.10
2022-12-06T14:23:00.625Z,2.15
2022-12-06T14:25:30.311Z,1.90
2022-12-06T14:28:07.484Z,2.20
2022-12-06T14:30:37.241Z,1.88
2022-12-06T14:33:17.909Z,2.25
2022-12-06T14:35:54.714Z,2.15
2022-12-06T14:38:21.770Z,2.30
2022-12-06T14:41:13.806Z,1.65
2022-12-06T14:43:42.284Z,1.92
2022-12-06T14:46:17.795Z,1.90
2022-12-06T14:49:04.042Z,2.08
2022-12-06T14:51:40.905Z,2.75
2022-12-06T14:54:26.569Z,1.92
2022-12-06T14:56:56.218Z,2.30
2022-12-06T15:00:12.948Z,2.25
2022-12-06T15:02:24.968Z,2.55
2022-12-06T15:04:52.185Z,2.25
2022-12-06T15:07:30.285Z,2.60
2022-12-06T15:10:21.622Z,2.97
2022-12-06T15:12:55.842Z,2.65
2022-12-06T15:15:40.008Z,2.45
2022-12-06T15:18:13.936Z,2.88
2022-12-06T15:20:43.254Z,2.20
2022-12-06T15:23:40.761Z,2.40
2022-12-06T15:26:12.021Z,2.55
2022-12-06T15:28:41.914Z,2.97
2022-12-06T15:31:29.958Z,2.90
2022-12-06T15:33:57.273Z,3.00
2022-12-06T15:36:36.427Z,2.38
2022-12-06T15:39:06.169Z,2.17
2022-12-06T15:41:39.121Z,2.65
2022-12-06T15:44:08.474Z,2.50
2022-12-06T15:46:36.374Z,2.33
2022-12-06T15:49:03.497Z,2.90
2022-12-06T15:51:33.061Z,3.05
2022-12-06T15:54:00.306Z,3.05
2022-12-06T15:56:29.361Z,2.60
2022-12-06T15:58:56.773Z,3.05
2022-12-06T16:01:29.014Z,2.78
2022-12-06T16:03:59.011Z,3.28
2022-12-06T16:06:28.025Z,2.83
2022-12-06T16:09:00.479Z,2.70
2022-12-06T16:11:30.112Z,3.17
2022-12-06T16:13:59.556Z,2.63
2022-12-06T16:16:29.245Z,2.75
2022-12-06T16:18:56.385Z,3.40
2022-12-06T16:21:29.222Z,3.65
2022-12-06T16:24:16.750Z,2.85
2022-12-06T16:26:45.093Z,3.20
2022-12-06T16:29:24.881Z,2.60
2022-12-06T16:31:55.628Z,2.75
2022-12-06T16:34:27.392Z,2.60
2022-12-06T16:36:56.730Z,2.90
2022-12-06T16:39:24.695Z,2.45
2022-12-06T16:41:54.301Z,3.00
2022-12-06T16:44:21.793Z,2.60
2022-12-06T16:46:48.997Z,2.55
2022-12-06T16:49:48.443Z,2.50
2022-12-06T16:52:16.969Z,2.92
2022-12-06T16:54:46.504Z,2.78
2022-12-06T16:57:14.528Z,2.70
2022-12-06T16:59:46.450Z,2.95
2022-12-06T17:02:31.432Z,2.88
2022-12-06T17:05:06.290Z,2.63
2022-12-06T17:07:36.770Z,2.53
2022-12-06T17:10:06.820Z,2.63
2022-12-06T17:12:38.796Z,2.47
2022-12-06T17:15:11.832Z,2.45
2022-12-06T17:17:39.025Z,2.45
2022-12-06T17:20:11.485Z,2.60
2022-12-06T17:22:40.090Z,2.63
2022-12-06T17:25:10.959Z,2.45
2022-12-06T17:27:38.674Z,2.30
2022-12-06T17:30:12.155Z,2.60
2022-12-06T17:32:39.328Z,2.63
2022-12-06T17:35:11.213Z,2.90
2022-12-06T17:37:38.328Z,2.40
2022-12-06T17:40:06.888Z,2.97
2022-12-06T17:42:52.554Z,3.15
2022-12-06T17:45:24.550Z,2.83
2022-12-06T17:47:54.217Z,2.70
2022-12-06T17:50:21.406Z,2.42
2022-12-06T17:52:49.481Z,3.08
2022-12-06T17:55:21.580Z,2.63
2022-12-06T17:57:50.930Z,2.83
2022-12-06T18:00:18.355Z,2.75
2022-12-06T18:02:52.447Z,2.90
2022-12-06T18:05:19.714Z,2.35
2022-12-06T18:07:52.581Z,2.60
2022-12-06T18:10:22.607Z,2.42
2022-12-06T18:12:55.994Z,3.28
2022-12-06T18:15:43.677Z,2.85
2022-12-06T18:18:10.758Z,2.40
2022-12-06T18:20:37.922Z,2.58
2022-12-06T18:23:05.079Z,2.80
2022-12-06T18:25:32.158Z,2.53
2022-12-06T18:28:01.584Z,2.83
2022-12-06T18:30:28.798Z,2.92
2022-12-06T18:33:02.360Z,2.50
2022-12-06T18:35:29.669Z,2.22
2022-12-06T18:37:59.309Z,2.80
2022-12-06T18:40:26.363Z,2.90
2022-12-06T18:42:55.878Z,2.25
2022-12-06T18:45:28.298Z,2.72
2022-12-06T18:47:57.756Z,2.50
2022-12-06T18:50:27.043Z,2.30
2022-12-06T18:52:54.174Z,2.25
2022-12-06T18:55:23.623Z,2.38
2022-12-06T18:57:50.765Z,2.30
2022-12-06T19:00:18.189Z,2.60
2022-12-06T19:02:45.376Z,2.65
2022-12-06T19:05:12.475Z,2.45
2022-12-06T19:07:42.259Z,2.42
2022-12-06T19:10:11.710Z,2.60
2022-12-06T19:12:38.852Z,2.40
2022-12-06T19:15:09.383Z,2.47
2022-12-06T19:17:38.910Z,2.40
2022-12-06T19:20:08.748Z,2.63
2022-12-06T19:22:38.266Z,2.40
2022-12-06T19:25:08.106Z,2.38
2022-12-06T19:27:39.665Z,2.47
2022-12-06T19:30:08.108Z,2.20
2022-12-06T19:32:42.310Z,2.30
2022-12-06T19:35:11.554Z,2.63
2022-12-06T19:37:38.680Z,2.20
2022-12-06T19:40:08.463Z,2.20
2022-12-06T19:42:54.395Z,2.53
2022-12-06T19:45:23.889Z,2.53
2022-12-06T19:47:53.365Z,2.53
2022-12-06T19:50:22.797Z,2.45
2022-12-06T19:52:55.528Z,2.30
2022-12-06T19:55:22.600Z,2.30
2022-12-06T19:57:54.483Z,2.40
2022-12-06T20:00:23.008Z,2.20
2022-12-06T20:02:52.533Z,2.20
2022-12-06T20:05:19.823Z,2.22
2022-12-06T20:07:49.508Z,2.33
2022-12-06T20:10:18.936Z,2.42
2022-12-06T20:12:51.002Z,2.00
2022-12-06T20:15:21.065Z,2.25
2022-12-06T20:17:50.382Z,2.30
2022-12-06T20:20:17.532Z,2.50
2022-12-06T20:22:44.664Z,2.20
2022-12-06T20:25:14.103Z,2.10
2022-12-06T20:27:52.606Z,2.70
2022-12-06T20:30:21.769Z,2.38
2022-12-06T20:32:56.314Z,2.55
2022-12-06T20:35:27.529Z,2.30
2022-12-06T20:37:57.302Z,2.40
2022-12-06T20:40:31.215Z,2.10
2022-12-06T20:42:58.832Z,2.40
2022-12-06T20:45:28.174Z,2.10
2022-12-06T20:47:57.842Z,2.40
2022-12-06T20:50:27.219Z,2.70
2022-12-06T20:52:54.393Z,2.35
2022-12-06T20:55:28.700Z,2.00
2022-12-06T20:57:58.150Z,2.25
2022-12-06T21:00:28.169Z,2.10
2022-12-06T21:02:55.298Z,2.50
2022-12-06T21:05:24.998Z,2.30
2022-12-06T21:07:52.160Z,2.20
2022-12-06T21:10:19.264Z,2.10
2022-12-06T21:12:46.331Z,1.98
2022-12-06T21:15:15.775Z,2.35
2022-12-06T21:17:47.335Z,2.13
2022-12-06T21:20:17.132Z,2.13
2022-12-06T21:22:44.262Z,2.30
2022-12-06T21:25:11.378Z,2.33
2022-12-06T21:27:38.539Z,2.15
2022-12-06T21:30:08.512Z,2.10
2022-12-06T21:32:40.115Z,1.85
2022-12-06T21:35:10.576Z,2.20
2022-12-06T21:37:39.747Z,1.90
2022-12-06T21:40:12.652Z,2.33
2022-12-06T21:42:42.226Z,2.22
2022-12-06T21:45:09.671Z,1.83
2022-12-06T21:47:39.155Z,2.17
2022-12-06T21:50:06.835Z,2.10
2022-12-06T21:52:36.120Z,2.10
2022-12-06T21:55:05.800Z,1.92
2022-12-06T21:57:42.952Z,2.05
2022-12-06T22:00:12.744Z,2.38
2022-12-06T22:02:42.501Z,2.15
2022-12-06T22:05:10.225Z,2.10
2022-12-06T22:07:39.770Z,2.03
2022-12-06T22:10:10.628Z,2.13
2022-12-06T22:12:37.738Z,2.25
2022-12-06T22:15:05.320Z,2.30
2022-12-06T22:17:37.016Z,2.20
2022-12-06T22:20:07.053Z,2.35
2022-12-06T22:22:34.181Z,2.03
2022-12-06T22:25:01.445Z,2.08
2022-12-06T22:27:33.572Z,2.33
2022-12-06T22:30:03.760Z,1.88
2022-12-06T22:32:35.300Z,2.28
2022-12-06T22:35:02.483Z,2.17
2022-12-06T22:37:29.547Z,2.20
2022-12-06T22:39:56.607Z,2.20
2022-12-06T22:42:26.110Z,1.90
2022-12-06T22:44:53.239Z,1.90
2022-12-06T22:47:24.955Z,2.30
2022-12-06T22:49:52.232Z,2.10
2022-12-06T22:52:21.563Z,2.20
2022-12-06T22:54:48.774Z,2.00
2022-12-06T22:57:23.134Z,2.13
2022-12-06T22:59:50.309Z,2.13
2022-12-06T23:02:20.160Z,2.33
2022-12-06T23:04:49.514Z,2.30
2022-12-06T23:07:21.359Z,2.10
2022-12-06T23:09:48.483Z,2.08
2022-12-06T23:12:18.006Z,2.40
2022-12-06T23:14:47.447Z,2.33
2022-12-06T23:17:14.512Z,2.10
2022-12-06T23:19:41.613Z,2.10
2022-12-06T23:22:10.949Z,2.08
2022-12-06T23:24:38.094Z,2.00
2022-12-06T23:27:07.554Z,1.90
2022-12-06T23:29:37.402Z,2.00
2022-12-06T23:32:06.913Z,2.10
2022-12-06T23:34:36.977Z,2.30
2022-12-06T23:37:04.654Z,2.38
2022-12-06T23:39:31.717Z,1.98
2022-12-06T23:41:58.856Z,2.22
2022-12-06T23:44:25.947Z,2.15
2022-12-06T23:46:55.426Z,1.90
2022-12-06T23:49:22.682Z,2.00
2022-12-06T23:51:54.408Z,2.35
2022-12-06T23:54:21.541Z,2.08
2022-12-06T23:56:48.702Z,1.90
2022-12-06T23:59:19.232Z,2.10
